Historyczne dane pomiarowe

Dodano dane terminowe – wersja testowa.

Dane z okresu 1951-2019

Wersja bazy: 1.34 [2019-03-16, lista zmian], aktualizacja planowana na 2019-04-15

Dane meteo z obszaru Polski uzyskane na podstawie danych udostępnionych przez Instytut Meteorologii i Gospodarki Wodnej – Państwowy Instytut Badawczy.

 

Wybierz Datę:    

       

TemperaturaWilgotnośćZachmurzenieWiatrCiśnienieWidzialnośćZjawiska
 Data    tng td wb rh cc ccl cl cm ch dir g1 g2 mslp ppp      
1999-07-24 00:00:00 14.8--- 13.1 13.890wxwxwxwx0wx--1015.3 993.2 0.0---wx
1999-07-24 01:00:00 13.6--- 12.0 12.790wxwxwxwx0wx--1015.5 993.3----wx
1999-07-24 02:00:00 12.3--- 11.1 11.692wxwxwxwx0wx--1015.8 993.5----wx
1999-07-24 03:00:00 11.8--- 10.2 10.990wxwxwxwx0wx--1016.1 993.7----wx
1999-07-24 04:00:00 13.4--- 11.7 12.489wxwxwxwxwx0wx--1016.2 994.0----wx
1999-07-24 05:00:00 16.2--- 12.5 14.079wxwxwx2wx--1016.4 994.4----wx
1999-07-24 06:00:00 17.0--- 14.4 15.485wxwxwx2wx--1016.8 994.8 0.0---wx
1999-07-24 07:00:00 18.6--- 14.0 15.875wxwxwx2wx--1017.1 995.2----wx
1999-07-24 08:00:00 20.2--- 13.3 16.065wxwxwx3wx--1017.1 995.4----wx
1999-07-24 09:00:00 21.0--- 13.1 16.261wxwxwx3wx--1017.4 995.7----wx
1999-07-24 10:00:00 20.4--- 11.2 15.056wxwxwx4wx--1017.7 996.0----wx
1999-07-24 11:00:00 22.0--- 12.0 16.053wxwxwx4wx--1017.6 996.0----wx
1999-07-24 12:00:00 23.6--- 11.6 16.447wxwxwx4wx--1017.3 995.8 0.0---wx
1999-07-24 13:00:00 23.4--- 11.4 16.247wxwxwx4wx--1017.2 995.7----wx
1999-07-24 14:00:00 22.8--- 11.0 15.847wxwxwx3wx--1017.3 995.7----wx
1999-07-24 15:00:00 23.0--- 12.5 16.652wxwxwx2wx--1017.2 995.7----wx
1999-07-24 16:00:00 22.4--- 12.9 16.655wxwxwx2wx--1017.4 995.8----wx
1999-07-24 17:00:00 22.2--- 13.4 16.858wxwxwx2wx--1017.5 995.9----wx
1999-07-24 18:00:00 21.6--- 14.2 17.063wxwx2wx--1017.7 996.0 0.0---wx
1999-07-24 19:00:00 17.8--- 13.1 15.074wxwx0wx--1017.9 996.0----wx
1999-07-24 20:00:00 15.4--- 13.0 14.086wxwx1wx--1018.3 996.2----wx
1999-07-24 21:00:00 14.6--- 12.6 13.488wxwx1wx--1018.7 996.5----wx
1999-07-24 22:00:00 14.2--- 12.8 13.492wxwx1wx--1019.1 996.9----wx
1999-07-24 23:00:00 13.6--- 12.2 12.891wxwx1wx--1019.3 997.0----wx

 

Źródłem pochodzenia danych jest Instytut Meteorologii i Gospodarki Wodnej – Państwowy Instytut Badawczy. Dane Instytutu Meteorologii i Gospodarki Wodnej – Państwowego Instytutu Badawczego zostały przetworzone.

Dane źródłowe można odnaleźć na stronie https://dane.imgw.pl